Highland, IN

7:58 AM CDT on July 26, 2017 (GMT -0500)
Southtown Estates | | Change Station
Active Advisory: Flood Warning

Elev 620 ft 41.54 °N, 87.44 °W | Updated 7 seconds ago

Partly Cloudy
Partly Cloudy
68.9 °F
Feels Like 68.9 °F
N
2.0
Wind Variable Wind from ESE

Today
High -- | Low -- °F
--% Chance of Precip.
Yesterday
High -- | Low -- °F
Precip. -- in
Pressure 30.11 in
Visibility 10.0 miles
Clouds Clear
Dew Point 61 °F
Humidity 78%
Rainfall 0.00 in
Snow Depth Not available.
5:38 AM 8:13 PM
Waxing Crescent, 13% visible
METAR KIGQ 261235Z AUTO 19003KT 10SM CLR 19/16 A3011 RMK AO2 T01860155
Pressure 30.11 in
Visibility 10.0 miles
Clouds Clear
Dew Point 61 °F
Humidity 78%
Rainfall 0.00 in
Snow Depth Not available.
5:38 AM 8:13 PM
Waxing Crescent, 13% visible
METAR KIGQ 261235Z AUTO 19003KT 10SM CLR 19/16 A3011 RMK AO2 T01860155

Get Your Daily Forecast Email!

Thanks for signing up!

Be on the lookout for a verification email in your inbox.

You'll start receiving severe weather alerts in your inbox..

×

10-Day Weather Forecast

Almanac

Astronomy

Jul. 26, 2017 Rise Set
Actual Time
Civil Twilight
Nautical Twilight
Astronomical Twilight
Moon
Length of Visible Light
Length of Day
Tomorrow will be .
, % of the Moon is Illuminated

Today's Extremes

State Highs State Lows

Community

WunderPhotos

Category 6

Welcome to Category 6. This is the collective home for Weather Underground's featured writeups by Dr. Jeff Masters (right), Bob Henson (left), Chris Burt, and other regular contributors.

Nearby

Air Quality

  Air Quality AQ Index Pollutant
Not available.

Snow Depth

Station Depth Elevation

Earthquake Activity

City Distance Mag. Time & Date
Minimum magnitude displayed is 2.5.

Coastal Water Temperatures

Place Temperature

Stations

Nearby Weather Stations

Station Location Temp. Windchill Dew Point Humidity Wind Precip. Elev Updated Type
                   

Watches & Warnings

Flood Warning
Issued: 9:27 PM CDT Jul. 25, 2017 – National Weather Service

The Flood Warning continues for
the Kankakee River at Shelby.
* Until late Thursday night.
* At 845 PM Tuesday the stage was 9.5 feet.
* Flood stage is 9.0 feet.
* Minor flooding is occurring and minor flooding is forecast.
* Forecast... the river will continue to fall to below flood stage by
Thursday evening.
* Impact... at 10.0 feet... flooding affects County and local roads.
Wildwood Estates and Sumava Resorts begin to experience some
flooding.


Lat... Lon 4118 8722 4111 8753 4121 8756 4127 8727